WetterOnline ( https://www.wetteronline.de )

Wetter aktuell Obernheim

Aktuelles Wetter: Klippeneck (975m)

6-stündlich | Neueste Meldungen
Ortszeit Temperatur Wetter
Fr, 19.04. 14:00 17.4° C wolkenlos
Fr, 19.04. 8:00 9.0° C wolkenlos
Fr, 19.04. 2:00 9.7° C wolkenlos
Do, 18.04. 20:00 13.5° C wolkenlos
Do, 18.04. 14:00 15.2° C wolkenlos
Do, 18.04. 8:00 6.3° C wolkenlos
Do, 18.04. 2:00 8.0° C leicht bewölkt
Mi, 17.04. 20:00 11.4° C wolkenlos
Ortszeit Temperatur Wetter
Fr, 19.04. 16:30 18.0° C leicht bewölkt
Fr, 19.04. 16:20 18.0° C leicht bewölkt
Fr, 19.04. 16:10 18.3° C fast wolkenlos
Fr, 19.04. 16:00 17.5° C fast wolkenlos
Fr, 19.04. 15:50 17.5° C fast wolkenlos
Fr, 19.04. 15:40 17.0° C wolkenlos
Fr, 19.04. 15:30 17.6° C fast wolkenlos
Fr, 19.04. 15:00 16.5° C fast wolkenlos
Fr, 19.04. 14:30 17.9° C wolkenlos
Fr, 19.04. 14:00 17.4° C wolkenlos
Fr, 19.04. 13:30 17.5° C wolkenlos
Ortszeit Relative Feuchte Sichtweite
Fr, 19.04. 14:00 31% 19 km
Fr, 19.04. 8:00 62% 35 km
Fr, 19.04. 2:00 62% 50 km
Do, 18.04. 20:00 47% 40 km
Do, 18.04. 14:00 45% 40 km
Do, 18.04. 8:00 64% 35 km
Do, 18.04. 2:00 41% 45 km
Mi, 17.04. 20:00 60% 17 km
Ortszeit Relative Feuchte Sichtweite
Fr, 19.04. 16:30 30% 20 km
Fr, 19.04. 16:20 30% -
Fr, 19.04. 16:10 32% -
Fr, 19.04. 16:00 28% 45 km
Fr, 19.04. 15:50 28% -
Fr, 19.04. 15:40 30% -
Fr, 19.04. 15:30 32% 29 km
Fr, 19.04. 15:00 31% 45 km
Fr, 19.04. 14:30 34% 27 km
Fr, 19.04. 14:00 31% 19 km
Fr, 19.04. 13:30 35% 15 km
Ortszeit Niederschlagsmenge Niederschlagsart
Fr, 19.04. 14:00 0.0 l/m2 in 6 Std. -
Fr, 19.04. 8:00 0.0 l/m2 in 12 Std. -
Fr, 19.04. 2:00 0.0 l/m2 in 6 Std. -
Do, 18.04. 20:00 0.0 l/m2 in 12 Std. -
Do, 18.04. 14:00 0.0 l/m2 in 6 Std. -
Do, 18.04. 8:00 0.0 l/m2 in 12 Std. -
Do, 18.04. 2:00 0.0 l/m2 in 6 Std. -
Mi, 17.04. 20:00 0.1 l/m2 in 12 Std. -
Ortszeit Niederschlagsmenge Niederschlagsart
Fr, 19.04. 16:30 0.0 l/m2 in 1 Std. -
Fr, 19.04. 16:20 keine Meldung -
Fr, 19.04. 16:10 keine Meldung -
Fr, 19.04. 16:00 0.0 l/m2 in 1 Std. -
Fr, 19.04. 15:50 keine Meldung -
Fr, 19.04. 15:40 keine Meldung -
Fr, 19.04. 15:30 0.0 l/m2 in 1 Std. -
Fr, 19.04. 15:00 0.0 l/m2 in 1 Std. -
Fr, 19.04. 14:30 0.0 l/m2 in 1 Std. -
Fr, 19.04. 14:00 0.0 l/m2 in 1 Std. -
Fr, 19.04. 13:30 0.0 l/m2 in 1 Std. -
Ortszeit Stärke Spitze Richtung
km/h Bft. km/h Grad Sektor
Fr, 19.04. 14:00 13 3 28 110° O
Fr, 19.04. 8:00 22 4 37 110° O
Fr, 19.04. 2:00 29 5 47 100° O
Do, 18.04. 20:00 18 3 32 90° O
Do, 18.04. 14:00 11 2 29 70° O
Do, 18.04. 8:00 18 3 54 100° O
Do, 18.04. 2:00 40 6 58 90° O
Mi, 17.04. 20:00 15 3 28 90° O
Ortszeit Stärke Spitze Richtung
km/h Bft. km/h Grad Sektor
Fr, 19.04. 16:30 9 2 19 150° SO
Fr, 19.04. 16:20 9 2 - 150° SO
Fr, 19.04. 16:10 13 3 - 140° SO
Fr, 19.04. 16:00 11 2 29 150° SO
Fr, 19.04. 15:50 11 2 - 150° SO
Fr, 19.04. 15:40 13 3 - 170° S
Fr, 19.04. 15:30 9 2 28 90° O
Fr, 19.04. 15:00 11 2 25 90° O
Fr, 19.04. 14:30 6 1 24 130° SO
Fr, 19.04. 14:00 13 3 28 110° O
Fr, 19.04. 13:30 9 2 24 120° SO
Ortszeit Untergrenze Bedeckung Gattung
total tief tief mittel hoch
Fr, 19.04. 14:00 - 0/8 0/8 - - -
Fr, 19.04. 8:00 - 0/8 0/8 - - -
Fr, 19.04. 2:00 - 0/8 0/8 - - -
Do, 18.04. 20:00 - 0/8 0/8 - - -
Do, 18.04. 14:00 - 0/8 0/8 - - -
Do, 18.04. 8:00 - 0/8 0/8 - - -
Do, 18.04. 2:00 9000 m 5/8 0/8 - - -
Mi, 17.04. 20:00 - 0/8 0/8 - - -
Ortszeit Bedeckungsgrad in Achtel und Wolkenuntergrenze
Fr, 19.04. 16:30 3(2100m)
Fr, 19.04. 16:20 3(2100m)
Fr, 19.04. 16:10 1(2100m)
Fr, 19.04. 16:00 1(2100m)
Fr, 19.04. 15:50 1(2100m)
Fr, 19.04. 15:40 keine Wolken
Fr, 19.04. 15:30 1(2100m)
Fr, 19.04. 15:00 1(1800m)
Fr, 19.04. 14:30 1(1800m)
Fr, 19.04. 14:00 keine Wolken
Fr, 19.04. 13:30 keine Wolken
Ortszeit Stationsdruck (hPa) Tendenz (hPa in 3 Std.)
Fr, 19.04. 14:00 915 + 0,1
Fr, 19.04. 8:00 913 + 1,2
Fr, 19.04. 2:00 912 + 0,6
Do, 18.04. 20:00 911 + 0,6
Do, 18.04. 14:00 910 - 0,1
Do, 18.04. 8:00 909 + 0,2
Do, 18.04. 2:00 909 + 0,1
Mi, 17.04. 20:00 909 - 0,1
Ortszeit Stationsdruck (hPa) Tendenz (hPa in 3 Std.)
Fr, 19.04. 16:30 915 - 0,2
Fr, 19.04. 16:20 915 keine Meldung
Fr, 19.04. 16:10 915 keine Meldung
Fr, 19.04. 16:00 915 - 0,1
Fr, 19.04. 15:50 915 keine Meldung
Fr, 19.04. 15:40 915 keine Meldung
Fr, 19.04. 15:30 915 + 0,1
Fr, 19.04. 15:00 915 0,0
Fr, 19.04. 14:30 915 0,0
Fr, 19.04. 14:00 915 + 0,1
Fr, 19.04. 13:30 915 + 0,3
Ortszeit Schneehöhe (cm)
Fr, 19.04. 14:00 0
Fr, 19.04. 8:00 0
Fr, 19.04. 2:00 0
Do, 18.04. 20:00 0
Do, 18.04. 14:00 0
Do, 18.04. 8:00 0
Do, 18.04. 2:00 0
Mi, 17.04. 20:00 0
Ortszeit Schneehöhe (cm)
Fr, 19.04. 16:30 0
Fr, 19.04. 16:20 0
Fr, 19.04. 16:10 0
Fr, 19.04. 16:00 0
Fr, 19.04. 15:50 0
Fr, 19.04. 15:40 0
Fr, 19.04. 15:30 0
Fr, 19.04. 15:00 0
Fr, 19.04. 14:30 0
Fr, 19.04. 14:00 0
Fr, 19.04. 13:30 0
Link zu dieser Seite / Seite empfehlen

Das Wetter in ...